Time;durP1;ratioP1;P1;durP2;ratioP2;P2;SDS_P1;SDS_P2;PMS_P1;PMS_P2;Temp;Humidity;BMP_temperature;BMP_pressure;BME280_temperature;BME280_humidity;BME280_pressure;Samples;Min_cycle;Max_cycle;Signal;HPM_P1;HPM_P2
2022/03/06 00:00:24;;;;;;;16.20;6.77;;;;;;;-0.45;52.75;100905.59;4186483;28;20398;-71
2022/03/06 00:02:50;;;;;;;21.80;8.43;;;;;;;-0.44;54.11;100907.31;4196552;28;20259;-71
2022/03/06 00:05:17;;;;;;;18.53;7.13;;;;;;;-0.36;52.49;100917.44;4195338;28;20253;-71
2022/03/06 00:07:44;;;;;;;14.50;6.20;;;;;;;-0.34;52.54;100915.63;4201442;28;21325;-71
2022/03/06 00:10:11;;;;;;;15.07;6.80;;;;;;;-0.14;52.32;100920.88;4200938;28;22574;-71
2022/03/06 00:12:38;;;;;;;16.50;7.27;;;;;;;-0.20;52.46;100921.13;4186121;28;20544;-73
2022/03/06 00:15:05;;;;;;;15.00;6.80;;;;;;;-0.34;52.53;100911.22;4177980;28;20860;-72
2022/03/06 00:17:32;;;;;;;16.43;7.17;;;;;;;-0.50;53.07;100918.84;4193668;28;20294;-71
2022/03/06 00:20:00;;;;;;;15.23;7.30;;;;;;;-0.48;53.37;100909.19;4207624;28;22195;-70
2022/03/06 00:22:27;;;;;;;16.20;7.40;;;;;;;-0.30;53.16;100914.56;4185612;28;23373;-72
2022/03/06 00:24:56;;;;;;;19.33;7.80;;;;;;;-0.27;52.51;100917.91;4205408;28;20237;-71
2022/03/06 00:27:22;;;;;;;13.83;6.93;;;;;;;-0.25;52.19;100917.84;4193791;28;21832;-71
2022/03/06 00:29:49;;;;;;;17.37;7.87;;;;;;;-0.31;52.81;100915.47;4209497;28;20301;-70
2022/03/06 00:32:16;;;;;;;15.50;7.83;;;;;;;-0.37;52.95;100913.97;4183095;28;21104;-71
2022/03/06 00:34:42;;;;;;;20.57;8.13;;;;;;;-0.48;53.57;100918.78;4189726;28;20251;-72
2022/03/06 00:37:09;;;;;;;25.83;9.53;;;;;;;-0.48;53.80;100911.78;4217573;28;20239;-72
2022/03/06 00:39:36;;;;;;;45.17;13.37;;;;;;;-0.43;52.65;100916.84;4202593;28;20287;-72
2022/03/06 00:42:02;;;;;;;34.80;12.60;;;;;;;-0.47;53.12;100910.91;4198530;28;20236;-72
2022/03/06 00:44:31;;;;;;;35.83;11.60;;;;;;;-0.33;52.34;100909.44;4195091;28;20229;-73
2022/03/06 00:46:58;;;;;;;33.60;11.80;;;;;;;-0.35;52.99;100903.44;4213796;28;20241;-73
2022/03/06 00:49:25;;;;;;;34.33;11.43;;;;;;;-0.43;53.23;100907.22;4202387;28;20306;-70
2022/03/06 00:51:51;;;;;;;27.83;10.37;;;;;;;-0.27;51.32;100907.44;4210022;28;20277;-73
2022/03/06 00:54:19;;;;;;;29.13;10.60;;;;;;;-0.29;52.44;100900.56;4196520;28;20257;-70
2022/03/06 00:56:46;;;;;;;27.80;10.53;;;;;;;-0.28;52.24;100903.13;4210344;28;20997;-71
2022/03/06 00:59:13;;;;;;;31.83;11.07;;;;;;;-0.49;53.84;100894.41;4201358;28;20228;-72
2022/03/06 01:01:40;;;;;;;31.13;11.47;;;;;;;-0.55;54.44;100899.88;4192518;28;20266;-74
2022/03/06 01:04:07;;;;;;;29.93;11.37;;;;;;;-0.64;54.66;100900.25;4192834;28;21059;-71
2022/03/06 01:06:34;;;;;;;22.80;10.40;;;;;;;-0.59;53.83;100898.31;4196793;28;20310;-67
2022/03/06 01:09:00;;;;;;;25.90;10.60;;;;;;;-0.39;54.20;100888.81;4191980;28;20303;-72
2022/03/06 01:11:27;;;;;;;34.47;13.00;;;;;;;-0.43;54.92;100894.16;4185385;28;21177;-71
2022/03/06 01:13:53;;;;;;;31.23;12.77;;;;;;;-0.35;55.38;100885.13;4194033;28;21693;-72
2022/03/06 01:16:20;;;;;;;32.73;12.07;;;;;;;-0.53;57.01;100882.38;4200161;28;20241;-72
2022/03/06 01:18:46;;;;;;;25.93;12.27;;;;;;;-0.43;55.93;100888.91;4199869;28;20988;-74
2022/03/06 01:21:13;;;;;;;31.00;12.87;;;;;;;-0.42;56.14;100889.78;4199844;28;20248;-73
2022/03/06 01:23:39;;;;;;;23.10;10.67;;;;;;;-0.37;56.09;100885.22;4196890;28;21026;-72
2022/03/06 01:26:06;;;;;;;22.37;10.30;;;;;;;-0.38;55.99;100883.50;4192942;28;20233;-71
2022/03/06 01:28:33;;;;;;;20.70;8.83;;;;;;;-0.43;55.88;100878.47;4205296;28;20229;-71
2022/03/06 01:31:00;;;;;;;21.20;9.20;;;;;;;-0.46;55.17;100877.75;4194577;28;21020;-72
2022/03/06 01:33:26;;;;;;;17.47;8.43;;;;;;;-0.43;55.75;100881.06;4195742;28;20278;-72
2022/03/06 01:35:53;;;;;;;17.63;8.43;;;;;;;-0.42;55.03;100879.34;4197285;28;20668;-70
2022/03/06 01:38:19;;;;;;;19.53;9.23;;;;;;;-0.41;55.36;100880.19;4193886;28;20271;-71
2022/03/06 01:40:46;;;;;;;19.57;9.43;;;;;;;-0.36;55.48;100884.28;4195708;28;20237;-71
2022/03/06 01:43:13;;;;;;;19.23;8.27;;;;;;;-0.36;54.87;100876.44;4193869;28;20237;-70
2022/03/06 01:45:40;;;;;;;19.47;7.93;;;;;;;-0.52;54.50;100878.00;4200920;28;20410;-71
2022/03/06 01:48:09;;;;;;;15.40;7.67;;;;;;;-0.62;54.63;100877.53;4204649;28;20445;-71
2022/03/06 01:50:37;;;;;;;20.10;8.73;;;;;;;-0.55;53.34;100885.97;4321212;28;20857;-72
2022/03/06 01:53:07;;;;;;;18.83;8.17;;;;;;;-0.68;53.94;100875.16;4189356;28;20301;-74
2022/03/06 01:55:34;;;;;;;15.00;7.80;;;;;;;-0.63;54.22;100875.84;4204665;28;20322;-71
2022/03/06 01:58:03;;;;;;;16.50;8.43;;;;;;;-0.64;55.06;100871.50;4199503;28;21244;-71
2022/03/06 02:00:34;;;;;;;17.20;8.83;;;;;;;-0.54;55.96;100865.00;4193029;28;20424;-70
2022/03/06 02:03:00;;;;;;;20.03;8.00;;;;;;;-0.50;54.95;100871.78;4193039;28;21607;-71
2022/03/06 02:05:27;;;;;;;17.97;7.53;;;;;;;-0.55;53.56;100865.91;4191600;28;21349;-70
2022/03/06 02:07:54;;;;;;;16.27;7.77;;;;;;;-0.49;53.81;100875.28;4213594;28;21489;-70
2022/03/06 02:10:21;;;;;;;14.07;7.10;;;;;;;-0.56;53.20;100868.56;4192702;28;20234;-72
2022/03/06 02:12:48;;;;;;;15.17;7.90;;;;;;;-0.57;52.19;100859.88;4199443;28;20474;-72
2022/03/06 02:15:16;;;;;;;16.33;7.47;;;;;;;-0.51;53.03;100864.03;4213904;28;26805;-72
2022/03/06 02:17:44;;;;;;;15.47;8.00;;;;;;;-0.63;52.47;100862.78;4196537;28;20241;-70
2022/03/06 02:20:13;;;;;;;12.13;4.63;;;;;;;-0.99;48.68;100849.44;4205245;28;20317;-73
2022/03/06 02:22:45;;;;;;;10.57;5.17;;;;;;;-0.96;49.16;100860.63;4193357;28;20346;-71
2022/03/06 02:25:17;;;;;;;8.80;4.50;;;;;;;-0.99;48.38;100858.09;4201739;28;20255;-70
2022/03/06 02:27:44;;;;;;;11.30;4.73;;;;;;;-0.80;48.85;100857.38;4198142;28;23635;-71
2022/03/06 02:30:14;;;;;;;8.97;4.20;;;;;;;-0.74;49.03;100857.13;4189960;28;20240;-72
2022/03/06 02:32:40;;;;;;;8.20;4.60;;;;;;;-0.62;48.35;100854.00;4194293;28;20244;-70
2022/03/06 02:35:08;;;;;;;9.87;4.90;;;;;;;-0.58;49.21;100854.75;4194306;28;21114;-70
2022/03/06 02:37:35;;;;;;;11.40;5.70;;;;;;;-0.59;50.33;100853.03;4199447;28;20284;-71
2022/03/06 02:40:04;;;;;;;11.67;5.70;;;;;;;-0.57;51.49;100857.28;4196705;28;22061;-72
2022/03/06 02:42:36;;;;;;;11.83;5.80;;;;;;;-0.55;51.26;100847.59;4180507;28;20368;-70
2022/03/06 02:45:13;;;;;;;13.27;5.80;;;;;;;-0.55;51.24;100852.84;4200126;28;20233;-71
2022/03/06 02:47:41;;;;;;;14.03;6.60;;;;;;;-0.60;51.03;100851.34;4197045;28;20267;-72
2022/03/06 02:50:10;;;;;;;14.63;6.13;;;;;;;-0.66;51.68;100848.06;4196150;28;20237;-70
2022/03/06 02:52:38;;;;;;;13.83;6.67;;;;;;;-0.80;52.12;100839.06;4189398;28;20291;-73
2022/03/06 02:55:06;;;;;;;11.87;6.23;;;;;;;-0.83;51.51;100844.44;4194694;28;20993;-74
2022/03/06 02:57:33;;;;;;;14.70;6.20;;;;;;;-0.78;51.40;100839.88;4190345;28;20234;-71
2022/03/06 02:59:59;;;;;;;10.53;5.80;;;;;;;-0.71;51.03;100843.94;4192566;28;21189;-71
2022/03/06 03:02:26;;;;;;;13.23;6.33;;;;;;;-0.73;50.73;100841.38;4197382;28;22309;-73
2022/03/06 03:04:53;;;;;;;14.53;6.50;;;;;;;-0.65;51.69;100841.91;4205199;28;20273;-71
2022/03/06 03:07:19;;;;;;;11.83;6.20;;;;;;;-0.64;52.01;100840.16;4199867;28;23040;-72
2022/03/06 03:09:46;;;;;;;15.13;7.23;;;;;;;-0.62;52.38;100843.56;4317143;28;20232;-71
2022/03/06 03:12:12;;;;;;;13.70;6.50;;;;;;;-0.72;52.13;100837.88;4191425;28;20291;-71
2022/03/06 03:14:39;;;;;;;15.80;7.13;;;;;;;-0.65;52.20;100838.47;4191690;28;20233;-71
2022/03/06 03:17:06;;;;;;;15.57;6.50;;;;;;;-0.64;52.19;100837.53;4199653;28;20236;-72
2022/03/06 03:19:32;;;;;;;13.47;6.13;;;;;;;-0.67;51.84;100837.66;4197981;28;20236;-71
2022/03/06 03:21:59;;;;;;;11.63;5.10;;;;;;;-0.70;51.42;100843.88;4187746;28;23072;-72
2022/03/06 03:24:25;;;;;;;8.97;4.80;;;;;;;-0.69;50.35;100836.88;4196005;28;20279;-71
2022/03/06 03:26:52;;;;;;;8.57;4.20;;;;;;;-0.59;48.62;100851.25;4190565;28;21231;-71
2022/03/06 03:29:18;;;;;;;7.10;3.87;;;;;;;-0.65;48.14;100846.31;4222717;28;20407;-71
2022/03/06 03:31:45;;;;;;;9.37;4.57;;;;;;;-0.88;46.87;100850.69;4193241;28;22171;-72
2022/03/06 03:34:12;;;;;;;9.53;4.07;;;;;;;-0.80;45.26;100852.13;4187393;28;23964;-71
2022/03/06 03:36:39;;;;;;;8.60;4.10;;;;;;;-0.88;46.22;100853.31;4186572;28;21547;-70
2022/03/06 03:39:06;;;;;;;8.53;4.73;;;;;;;-0.99;48.16;100847.66;4190469;28;20231;-71
2022/03/06 03:41:33;;;;;;;9.93;4.93;;;;;;;-0.92;49.07;100845.66;4189086;28;22427;-71
2022/03/06 03:44:00;;;;;;;8.03;4.63;;;;;;;-0.83;49.75;100847.91;4214045;28;20232;-73
2022/03/06 03:46:27;;;;;;;11.90;5.30;;;;;;;-0.76;49.03;100851.13;4211747;28;25890;-71
2022/03/06 03:48:54;;;;;;;9.63;4.57;;;;;;;-0.62;49.91;100851.41;4216689;28;20303;-72
2022/03/06 03:51:20;;;;;;;10.93;5.33;;;;;;;-0.58;48.99;100847.75;4192970;28;21018;-71
2022/03/06 03:53:50;;;;;;;11.37;5.03;;;;;;;-0.65;49.64;100848.91;4197395;28;20260;-71
2022/03/06 03:56:17;;;;;;;9.93;4.57;;;;;;;-0.71;49.79;100846.53;4189990;28;23421;-70
2022/03/06 03:58:43;;;;;;;9.37;4.77;;;;;;;-0.66;49.23;100847.19;4196560;28;20636;-72
2022/03/06 04:01:10;;;;;;;10.33;4.80;;;;;;;-0.88;50.11;100855.06;4215973;28;20254;-71
2022/03/06 04:03:37;;;;;;;11.70;4.80;;;;;;;-1.00;49.80;100851.19;4197554;28;20299;-71
2022/03/06 04:06:03;;;;;;;11.73;4.87;;;;;;;-1.08;49.27;100840.19;4209106;28;20240;-72
2022/03/06 04:08:30;;;;;;;12.40;4.90;;;;;;;-1.07;49.08;100852.34;4198325;28;21783;-72
2022/03/06 04:10:59;;;;;;;9.20;4.90;;;;;;;-0.98;49.68;100848.53;4188445;28;21036;-70
2022/03/06 04:13:26;;;;;;;12.20;4.80;;;;;;;-0.82;49.51;100853.97;4197333;28;20309;-73
2022/03/06 04:15:53;;;;;;;12.57;4.57;;;;;;;-0.66;49.33;100860.25;4192051;28;20240;-71
2022/03/06 04:18:20;;;;;;;10.30;4.87;;;;;;;-0.61;49.60;100853.09;4194653;28;20236;-73
2022/03/06 04:20:46;;;;;;;10.53;4.33;;;;;;;-0.67;49.46;100858.59;4204551;28;20279;-71
2022/03/06 04:23:13;;;;;;;9.77;4.73;;;;;;;-0.67;48.92;100864.66;4218853;28;20714;-72
2022/03/06 04:25:40;;;;;;;10.80;4.50;;;;;;;-0.69;49.13;100860.41;4201676;28;20304;-71
2022/03/06 04:28:07;;;;;;;10.40;4.90;;;;;;;-0.71;50.24;100859.59;4212160;28;20256;-69
2022/03/06 04:30:34;;;;;;;9.67;5.00;;;;;;;-0.61;50.16;100867.91;4193378;28;20241;-71
2022/03/06 04:33:02;;;;;;;11.03;5.17;;;;;;;-0.67;50.20;100855.97;4210329;28;20233;-72
2022/03/06 04:35:29;;;;;;;9.57;4.50;;;;;;;-0.80;49.08;100858.22;4195850;28;20236;-72
2022/03/06 04:37:55;;;;;;;13.03;5.23;;;;;;;-0.86;49.30;100867.16;4200864;28;20248;-72
2022/03/06 04:40:22;;;;;;;7.93;4.67;;;;;;;-0.77;48.84;100865.06;4196101;28;20224;-71
2022/03/06 04:42:48;;;;;;;10.67;4.90;;;;;;;-0.69;48.40;100865.63;4196639;28;20252;-71
2022/03/06 04:45:15;;;;;;;8.73;4.80;;;;;;;-0.76;49.20;100858.94;4208073;28;20467;-72
2022/03/06 04:47:41;;;;;;;9.80;5.00;;;;;;;-0.70;49.57;100861.31;4213460;28;20882;-73
2022/03/06 04:50:08;;;;;;;10.70;4.70;;;;;;;-0.78;49.70;100855.53;4200063;28;20356;-71
2022/03/06 04:52:35;;;;;;;9.27;4.40;;;;;;;-0.78;49.10;100860.78;4210344;28;20299;-71
2022/03/06 04:55:01;;;;;;;10.37;4.70;;;;;;;-0.73;48.97;100856.22;4217293;28;20678;-72
2022/03/06 04:57:28;;;;;;;8.83;4.13;;;;;;;-0.73;47.75;100861.44;4207233;28;20385;-71
2022/03/06 04:59:54;;;;;;;6.47;3.80;;;;;;;-0.85;46.92;100861.00;4205450;28;23325;-72
2022/03/06 05:02:21;;;;;;;8.60;4.20;;;;;;;-0.80;46.22;100855.59;4200592;28;20237;-74
2022/03/06 05:04:50;;;;;;;8.63;4.20;;;;;;;-0.64;45.53;100853.22;4196668;28;20328;-70
2022/03/06 05:07:17;;;;;;;9.27;3.93;;;;;;;-0.55;45.47;100858.06;4211650;28;20233;-69
2022/03/06 05:09:44;;;;;;;9.70;3.97;;;;;;;-0.65;46.80;100860.22;4197110;28;21165;-71
2022/03/06 05:12:10;;;;;;;8.73;4.37;;;;;;;-0.59;47.11;100860.88;4205850;28;21832;-71
2022/03/06 05:14:37;;;;;;;9.00;4.10;;;;;;;-0.67;47.58;100859.41;4196954;28;20305;-71
2022/03/06 05:17:04;;;;;;;9.70;4.10;;;;;;;-0.64;48.31;100855.84;4190751;28;20232;-70
2022/03/06 05:19:30;;;;;;;9.83;4.40;;;;;;;-0.78;48.32;100860.78;4193729;28;20694;-71
2022/03/06 05:21:57;;;;;;;8.27;4.57;;;;;;;-0.80;48.46;100858.22;4198271;28;20253;-72
2022/03/06 05:24:23;;;;;;;9.57;4.93;;;;;;;-0.79;48.08;100856.47;4193610;28;24141;-72
2022/03/06 05:26:50;;;;;;;9.47;4.27;;;;;;;-0.72;47.46;100852.69;4205399;28;20297;-70
2022/03/06 05:29:17;;;;;;;9.17;4.27;;;;;;;-0.67;47.65;100853.34;4192660;28;25482;-71
2022/03/06 05:31:43;;;;;;;8.70;4.67;;;;;;;-0.70;46.87;100850.88;4198437;28;20939;-71
2022/03/06 05:34:10;;;;;;;12.00;5.10;;;;;;;-0.69;47.32;100849.94;4218177;28;20234;-71
2022/03/06 05:36:36;;;;;;;10.20;5.10;;;;;;;-0.78;47.02;100847.72;4197675;28;20300;-71
2022/03/06 05:39:03;;;;;;;10.47;4.67;;;;;;;-0.61;46.06;100853.09;4181863;28;20484;-72
2022/03/06 05:41:29;;;;;;;11.87;4.70;;;;;;;-0.69;46.23;100850.78;4202667;28;20299;-74
2022/03/06 05:43:56;;;;;;;10.00;4.63;;;;;;;-0.76;45.85;100848.50;4220983;28;21152;-73
2022/03/06 05:46:23;;;;;;;10.47;4.73;;;;;;;-0.66;46.02;100849.81;4175213;28;20236;-73
2022/03/06 05:48:49;;;;;;;9.83;4.40;;;;;;;-0.52;45.34;100857.94;4200999;28;20610;-71
2022/03/06 05:51:16;;;;;;;9.37;4.50;;;;;;;-0.55;46.17;100858.06;4206219;28;22460;-74
2022/03/06 05:53:42;;;;;;;9.73;4.97;;;;;;;-0.48;46.10;100854.28;4191665;28;20821;-68
2022/03/06 05:56:09;;;;;;;8.97;4.53;;;;;;;-0.51;45.72;100854.41;4196537;28;20232;-74
2022/03/06 05:58:35;;;;;;;10.00;4.30;;;;;;;-0.44;45.85;100855.84;4178572;28;22362;-73
2022/03/06 06:01:02;;;;;;;9.30;4.70;;;;;;;-0.46;46.00;100857.69;4212535;28;23553;-76
2022/03/06 06:03:29;;;;;;;9.00;4.70;;;;;;;-0.44;46.68;100853.25;4195466;28;20320;-74
2022/03/06 06:05:55;;;;;;;9.00;4.90;;;;;;;-0.42;45.45;100847.97;4207160;28;20254;-72
2022/03/06 06:08:22;;;;;;;9.53;4.53;;;;;;;-0.34;46.08;100852.84;4206204;28;20223;-71
2022/03/06 06:10:49;;;;;;;11.00;4.63;;;;;;;-0.33;46.13;100849.31;4220478;28;20234;-77
2022/03/06 06:13:15;;;;;;;9.77;4.67;;;;;;;-0.48;45.36;100849.06;4194768;28;20232;-74
2022/03/06 06:15:45;;;;;;;10.40;4.70;;;;;;;-0.41;44.67;100847.03;4162995;28;1193933;-75
2022/03/06 06:18:12;;;;;;;10.27;4.83;;;;;;;-0.45;44.45;100843.69;4181774;28;20244;-75
2022/03/06 06:20:40;;;;;;;9.60;4.63;;;;;;;-0.34;44.52;100842.41;4184552;28;20823;-73
2022/03/06 06:23:06;;;;;;;11.13;4.70;;;;;;;-0.44;43.10;100840.19;4192464;28;20462;-76
2022/03/06 06:25:32;;;;;;;8.63;4.37;;;;;;;-0.27;43.00;100841.22;4170261;28;20320;-74
2022/03/06 06:27:59;;;;;;;8.17;4.57;;;;;;;-0.12;43.10;100845.78;4183409;28;20700;-71
2022/03/06 06:30:26;;;;;;;10.40;4.30;;;;;;;0.00;43.40;100836.56;4202637;28;21792;-72
2022/03/06 06:32:52;;;;;;;9.57;4.40;;;;;;;0.15;44.14;100832.41;4191441;28;20242;-74
2022/03/06 06:35:20;;;;;;;8.97;4.23;;;;;;;0.29;44.31;100837.88;4182764;28;20723;-73
2022/03/06 06:37:46;;;;;;;9.63;4.57;;;;;;;0.09;43.84;100836.13;4185546;28;20652;-69
2022/03/06 06:40:13;;;;;;;9.47;4.50;;;;;;;0.05;43.36;100839.81;4169145;28;20663;-76
2022/03/06 06:42:40;;;;;;;8.30;4.03;;;;;;;-0.02;43.36;100849.72;4172110;28;21485;-76
2022/03/06 06:45:07;;;;;;;10.03;4.20;;;;;;;0.02;42.34;100845.16;4162762;28;21174;-74
2022/03/06 06:47:33;;;;;;;8.73;4.57;;;;;;;0.18;41.89;100838.34;4162816;28;21466;-74
2022/03/06 06:50:00;;;;;;;8.83;4.20;;;;;;;0.33;40.96;100841.22;4213581;28;22171;-70
2022/03/06 06:52:26;;;;;;;12.57;4.73;;;;;;;0.36;41.62;100838.44;4197385;28;20317;-74
2022/03/06 06:54:53;;;;;;;8.43;4.03;;;;;;;0.49;41.83;100841.34;4190916;28;20227;-77
2022/03/06 06:57:19;;;;;;;7.57;4.50;;;;;;;0.67;40.23;100843.09;4193418;28;20233;-76
2022/03/06 06:59:46;;;;;;;10.23;4.90;;;;;;;0.30;40.28;100847.41;4173918;28;20418;-74
2022/03/06 07:02:13;;;;;;;8.17;4.37;;;;;;;0.36;40.86;100838.44;4176090;28;20934;-75
2022/03/06 07:04:40;;;;;;;9.83;5.00;;;;;;;0.25;41.27;100840.69;4195484;28;20229;-76
2022/03/06 07:07:06;;;;;;;9.97;4.40;;;;;;;0.09;41.67;100843.13;4199337;28;21523;-75
2022/03/06 07:09:33;;;;;;;9.63;4.60;;;;;;;-0.06;41.82;100848.13;4177994;28;20256;-72
2022/03/06 07:11:59;;;;;;;11.37;4.47;;;;;;;0.08;41.07;100841.44;4201135;28;20310;-71
2022/03/06 07:14:26;;;;;;;12.37;4.47;;;;;;;0.22;41.04;100843.47;4201753;28;20232;-75
2022/03/06 07:16:52;;;;;;;10.67;4.60;;;;;;;0.28;41.23;100844.03;4217732;28;20244;-73
2022/03/06 07:19:19;;;;;;;8.43;4.97;;;;;;;0.67;40.92;100835.25;4172655;28;20264;-73
2022/03/06 07:21:46;;;;;;;7.83;4.10;;;;;;;0.69;41.18;100843.03;4175224;28;20664;-72
2022/03/06 07:24:13;;;;;;;8.23;4.57;;;;;;;0.61;40.32;100843.41;4189536;28;22107;-74
2022/03/06 07:26:39;;;;;;;9.03;4.60;;;;;;;0.37;41.24;100837.50;4174505;28;22542;-75
2022/03/06 07:29:06;;;;;;;10.03;4.80;;;;;;;0.25;41.74;100838.06;4190832;28;20225;-74
2022/03/06 07:31:32;;;;;;;8.00;4.40;;;;;;;0.22;42.19;100833.84;4191185;28;20233;-74
2022/03/06 07:33:59;;;;;;;11.97;5.93;;;;;;;0.38;42.35;100840.06;4194868;28;23258;-73
2022/03/06 07:36:26;;;;;;;12.10;4.67;;;;;;;0.69;40.91;100843.03;4204708;28;20296;-74
2022/03/06 07:38:53;;;;;;;9.80;4.67;;;;;;;0.81;39.94;100838.06;4196302;28;23071;-70
2022/03/06 07:41:20;;;;;;;13.30;5.27;;;;;;;0.99;39.23;100845.97;4210894;28;20241;-74
2022/03/06 07:43:46;;;;;;;9.17;4.43;;;;;;;1.22;39.00;100848.34;4189337;28;20268;-71
2022/03/06 07:46:15;;;;;;;12.63;4.90;;;;;;;1.53;38.29;100846.81;4188675;28;21275;-76
2022/03/06 07:48:41;;;;;;;11.33;5.07;;;;;;;1.65;38.20;100846.19;4201309;28;21249;-75
2022/03/06 07:51:08;;;;;;;10.17;4.50;;;;;;;1.96;37.91;100857.72;4188033;28;20645;-73
2022/03/06 07:53:35;;;;;;;10.10;5.30;;;;;;;2.34;36.32;100862.75;4181496;28;20325;-76
2022/03/06 07:56:01;;;;;;;8.77;4.90;;;;;;;2.63;36.77;100861.19;4211473;28;20295;-75
2022/03/06 07:58:28;;;;;;;10.70;5.47;;;;;;;2.86;35.77;100859.94;4197986;28;21868;-72
2022/03/06 08:00:54;;;;;;;9.57;5.27;;;;;;;3.72;33.89;100852.38;4202793;28;20340;-70
2022/03/06 08:03:21;;;;;;;14.33;5.43;;;;;;;7.50;28.81;100866.78;4223891;28;21296;-71
2022/03/06 08:05:48;;;;;;;10.13;5.33;;;;;;;11.71;23.03;100886.81;4190544;28;25675;-68
2022/03/06 08:08:15;;;;;;;11.70;5.73;;;;;;;14.12;18.67;100890.19;4225633;28;20338;-70
2022/03/06 08:10:42;;;;;;;10.83;5.03;;;;;;;14.15;18.54;100892.56;4190008;28;20235;-69
2022/03/06 08:13:08;;;;;;;7.83;4.77;;;;;;;11.60;20.60;100882.44;4200099;28;21002;-70
2022/03/06 08:15:36;;;;;;;9.10;4.97;;;;;;;10.89;22.13;100880.81;4192374;28;20243;-69
2022/03/06 08:18:03;;;;;;;9.97;4.80;;;;;;;10.00;22.34;100875.22;4224229;28;20302;-69
2022/03/06 08:20:30;;;;;;;10.60;5.53;;;;;;;8.65;24.17;100873.84;4196103;28;20357;-71
2022/03/06 08:22:56;;;;;;;10.67;5.60;;;;;;;9.05;23.85;100877.78;4205572;28;20744;-69
2022/03/06 08:25:23;;;;;;;9.53;5.10;;;;;;;9.41;23.34;100876.59;4220336;28;20828;-69
2022/03/06 08:27:49;;;;;;;9.17;4.40;;;;;;;10.72;22.01;100884.13;4201262;28;20234;-68
2022/03/06 08:30:16;;;;;;;10.50;5.30;;;;;;;12.04;20.13;100888.19;4256292;28;21577;-68
2022/03/06 08:32:43;;;;;;;11.67;5.50;;;;;;;10.71;20.76;100890.44;4239620;28;20230;-72
2022/03/06 08:35:09;;;;;;;11.30;5.80;;;;;;;8.22;24.07;100879.03;4211915;28;22884;-68
2022/03/06 08:37:36;;;;;;;9.23;5.00;;;;;;;7.70;25.71;100875.91;4195389;28;22625;-73
2022/03/06 08:40:04;;;;;;;10.37;5.50;;;;;;;6.98;26.59;100867.97;4178643;28;21607;-73
2022/03/06 08:42:33;;;;;;;15.70;5.37;;;;;;;6.08;27.94;100860.19;4191539;28;20245;-69
2022/03/06 08:45:00;;;;;;;10.23;5.63;;;;;;;4.82;29.34;100857.06;4193675;28;23573;-71
2022/03/06 08:47:27;;;;;;;10.27;5.67;;;;;;;4.41;30.46;100849.97;4191254;28;20229;-71
2022/03/06 08:49:53;;;;;;;11.40;6.07;;;;;;;3.94;31.60;100857.22;4195155;28;20235;-72
2022/03/06 08:52:20;;;;;;;9.63;4.73;;;;;;;3.70;31.50;100854.25;4208695;28;20234;-71
2022/03/06 08:54:46;;;;;;;8.23;5.00;;;;;;;3.26;33.08;100847.16;4198168;28;22578;-75
2022/03/06 08:57:17;;;;;;;15.93;6.90;;;;;;;2.64;34.69;100851.53;4189762;28;21952;-73
2022/03/06 08:59:43;;;;;;;13.60;5.70;;;;;;;2.79;34.41;100842.81;4192500;28;20291;-75
2022/03/06 09:02:10;;;;;;;10.07;4.97;;;;;;;2.48;34.48;100841.88;4196631;28;25674;-75
2022/03/06 09:04:37;;;;;;;12.90;5.50;;;;;;;2.10;35.52;100836.84;4213736;28;20248;-74
2022/03/06 09:07:03;;;;;;;10.93;5.40;;;;;;;2.00;35.80;100837.44;4182761;28;20240;-75
2022/03/06 09:09:30;;;;;;;10.07;5.03;;;;;;;1.82;37.20;100832.19;4182586;28;20680;-73
2022/03/06 09:11:57;;;;;;;15.10;5.50;;;;;;;1.80;37.35;100830.59;4206434;28;20681;-75
2022/03/06 09:14:23;;;;;;;12.50;5.43;;;;;;;2.11;36.59;100835.94;4196110;28;21417;-71
2022/03/06 09:16:50;;;;;;;11.47;5.23;;;;;;;1.85;37.17;100837.31;4206526;28;21649;-73
2022/03/06 09:19:17;;;;;;;10.23;5.03;;;;;;;2.07;36.73;100836.19;4192234;28;21982;-73
2022/03/06 09:21:44;;;;;;;13.17;5.50;;;;;;;2.17;37.58;100832.13;4209691;28;20237;-74
2022/03/06 09:24:11;;;;;;;11.83;5.30;;;;;;;2.42;36.69;100833.47;4195129;28;20308;-74
2022/03/06 09:26:37;;;;;;;14.40;5.47;;;;;;;2.43;37.14;100825.47;4204429;28;20316;-75
2022/03/06 09:29:04;;;;;;;11.00;4.97;;;;;;;2.34;36.57;100828.59;4195131;28;20742;-74
2022/03/06 09:31:31;;;;;;;9.97;4.90;;;;;;;2.02;37.30;100828.56;4211809;28;21574;-72
2022/03/06 09:33:58;;;;;;;10.20;5.07;;;;;;;1.96;37.17;100813.13;4212605;28;20285;-73
2022/03/06 09:36:44;;;;;;;12.37;5.47;;;;;;;2.14;37.82;100819.19;4178651;28;20320;-74
2022/03/06 09:39:10;;;;;;;12.63;5.50;;;;;;;1.92;38.44;100819.47;4200042;28;20412;-75
2022/03/06 09:41:38;;;;;;;12.13;5.23;;;;;;;2.10;38.18;100820.28;4212193;28;20249;-75
2022/03/06 09:44:10;;;;;;;10.53;4.73;;;;;;;2.11;37.80;100821.97;4180551;28;20618;-74
2022/03/06 09:46:37;;;;;;;9.50;5.30;;;;;;;2.41;37.09;100819.50;4190549;28;20232;-74
2022/03/06 09:49:06;;;;;;;12.00;5.57;;;;;;;2.99;36.19;100804.88;4275218;28;20423;-74
2022/03/06 09:51:34;;;;;;;11.57;5.40;;;;;;;3.13;35.45;100811.97;4207011;28;20253;-72
2022/03/06 09:54:01;;;;;;;9.93;5.10;;;;;;;3.80;34.79;100818.53;4209575;28;22306;-74
2022/03/06 09:56:27;;;;;;;10.73;4.47;;;;;;;4.21;32.72;100817.81;4216270;28;20241;-74
2022/03/06 09:58:54;;;;;;;9.57;4.90;;;;;;;4.59;32.11;100808.47;4221232;28;20367;-74
2022/03/06 10:01:20;;;;;;;10.03;5.23;;;;;;;4.57;32.40;100807.72;4196252;28;21946;-74
2022/03/06 10:03:50;;;;;;;9.77;4.60;;;;;;;4.45;33.10;100811.97;4231867;28;21911;-71
2022/03/06 10:06:16;;;;;;;10.70;4.87;;;;;;;4.49;32.38;100812.59;4230436;28;20236;-75
2022/03/06 10:08:46;;;;;;;10.77;5.27;;;;;;;4.67;32.36;100805.34;4231881;28;26268;-77
2022/03/06 10:11:16;;;;;;;11.27;4.80;;;;;;;4.10;33.90;100803.63;4245132;28;20295;-74
2022/03/06 10:13:44;;;;;;;8.23;4.33;;;;;;;4.47;32.10;100807.41;4212443;28;20240;-73
2022/03/06 10:16:12;;;;;;;6.83;3.27;;;;;;;4.94;32.32;100800.06;4210813;28;20302;-73
2022/03/06 10:18:48;;;;;;;8.80;3.90;;;;;;;5.39;32.84;100808.53;4213555;28;21084;-76
2022/03/06 10:21:26;;;;;;;10.60;3.73;;;;;;;5.33;31.32;100806.31;4213539;28;20323;-73
2022/03/06 10:23:58;;;;;;;8.47;4.17;;;;;;;5.28;32.18;100812.72;4263538;28;20608;-74
2022/03/06 10:26:29;;;;;;;9.70;4.70;;;;;;;5.19;31.49;100804.56;4234191;28;20285;-75
2022/03/06 10:28:58;;;;;;;13.40;4.80;;;;;;;4.40;32.18;100800.84;4231398;28;21761;-75
2022/03/06 10:31:28;;;;;;;8.77;4.70;;;;;;;4.37;32.80;100799.25;4205266;28;20232;-75
2022/03/06 10:34:03;;;;;;;9.23;4.77;;;;;;;4.09;34.34;100794.84;4186410;28;20691;-74
2022/03/06 10:36:48;;;;;;;9.17;4.83;;;;;;;4.32;33.53;100797.88;4223393;28;20291;-75
2022/03/06 10:39:22;;;;;;;10.67;4.93;;;;;;;4.28;33.69;100793.72;4205995;28;20342;-75
2022/03/06 10:41:54;;;;;;;8.97;4.83;;;;;;;3.70;34.63;100791.09;4206399;28;20355;-76
2022/03/06 10:44:43;;;;;;;10.80;5.07;;;;;;;3.40;36.24;100779.78;4234248;28;20347;-75
2022/03/06 10:47:14;;;;;;;9.00;5.13;;;;;;;3.50;34.93;100784.38;4239546;28;20410;-75
2022/03/06 10:49:41;;;;;;;11.83;4.80;;;;;;;3.53;35.40;100771.03;4237691;28;20279;-75
2022/03/06 10:52:20;;;;;;;10.33;4.80;;;;;;;3.83;34.29;100771.91;4225010;28;20245;-76
2022/03/06 10:54:55;;;;;;;8.53;4.27;;;;;;;3.57;35.74;100763.81;4227010;28;21424;-76
2022/03/06 10:57:23;;;;;;;9.07;4.40;;;;;;;3.36;35.34;100766.78;4221087;28;21572;-74
2022/03/06 10:59:50;;;;;;;10.47;5.20;;;;;;;3.64;35.40;100762.50;4235843;28;20362;-75
2022/03/06 11:02:18;;;;;;;10.37;4.77;;;;;;;4.12;33.92;100770.97;4199233;28;20236;-74
2022/03/06 11:04:46;;;;;;;11.43;4.80;;;;;;;3.78;34.42;100762.50;4279592;28;20232;-71
2022/03/06 11:07:14;;;;;;;8.73;3.53;;;;;;;3.12;35.25;100757.72;4224020;28;20241;-73
2022/03/06 11:09:41;;;;;;;8.73;4.30;;;;;;;3.09;35.99;100757.88;4232481;28;20419;-71
2022/03/06 11:12:08;;;;;;;10.53;4.40;;;;;;;3.24;36.15;100756.16;4206950;28;20241;-74
2022/03/06 11:14:35;;;;;;;10.13;3.43;;;;;;;3.70;35.24;100766.53;4254743;28;20236;-72
2022/03/06 11:17:02;;;;;;;6.67;3.63;;;;;;;3.85;33.91;100756.88;4216454;28;20224;-73
2022/03/06 11:19:32;;;;;;;8.77;3.60;;;;;;;3.81;33.89;100754.41;4209700;28;20232;-74
2022/03/06 11:22:14;;;;;;;5.23;2.97;;;;;;;3.59;33.87;100756.69;4203575;28;20298;-69